sensor_id;sensor_type;location;lat;lon;timestamp;temperature;humidity
39371;DHT22;25099;51.946;4.838;2023-12-04T00:00:24;2.90;99.90
39371;DHT22;25099;51.946;4.838;2023-12-04T00:02:49;3.00;99.90
39371;DHT22;25099;51.946;4.838;2023-12-04T00:05:15;3.00;99.90
39371;DHT22;25099;51.946;4.838;2023-12-04T00:07:40;3.00;99.90
39371;DHT22;25099;51.946;4.838;2023-12-04T00:10:06;3.10;99.90
39371;DHT22;25099;51.946;4.838;2023-12-04T00:12:32;3.10;99.90
39371;DHT22;25099;51.946;4.838;2023-12-04T00:14:59;3.00;99.90
39371;DHT22;25099;51.946;4.838;2023-12-04T00:17:25;3.00;99.90
39371;DHT22;25099;51.946;4.838;2023-12-04T00:19:50;3.00;99.90
39371;DHT22;25099;51.946;4.838;2023-12-04T00:22:16;3.00;99.90
39371;DHT22;25099;51.946;4.838;2023-12-04T00:24:41;3.00;99.90
39371;DHT22;25099;51.946;4.838;2023-12-04T00:27:07;3.00;99.90
39371;DHT22;25099;51.946;4.838;2023-12-04T00:29:33;3.00;99.90
39371;DHT22;25099;51.946;4.838;2023-12-04T00:31:58;3.00;99.90
39371;DHT22;25099;51.946;4.838;2023-12-04T00:34:24;3.00;99.90
39371;DHT22;25099;51.946;4.838;2023-12-04T00:36:49;3.00;99.90
39371;DHT22;25099;51.946;4.838;2023-12-04T00:39:16;3.00;99.90
39371;DHT22;25099;51.946;4.838;2023-12-04T00:41:41;3.00;99.90
39371;DHT22;25099;51.946;4.838;2023-12-04T00:44:07;3.00;99.90
39371;DHT22;25099;51.946;4.838;2023-12-04T00:46:32;3.00;99.90
39371;DHT22;25099;51.946;4.838;2023-12-04T00:48:58;3.00;99.90
39371;DHT22;25099;51.946;4.838;2023-12-04T00:51:23;3.00;99.90
39371;DHT22;25099;51.946;4.838;2023-12-04T00:53:49;3.00;99.90
39371;DHT22;25099;51.946;4.838;2023-12-04T00:56:14;3.00;99.90
39371;DHT22;25099;51.946;4.838;2023-12-04T00:58:40;3.00;99.90
39371;DHT22;25099;51.946;4.838;2023-12-04T01:01:06;3.00;99.90
39371;DHT22;25099;51.946;4.838;2023-12-04T01:03:31;3.00;99.90
39371;DHT22;25099;51.946;4.838;2023-12-04T01:05:59;3.00;99.90
39371;DHT22;25099;51.946;4.838;2023-12-04T01:08:24;3.00;99.90
39371;DHT22;25099;51.946;4.838;2023-12-04T01:10:50;3.00;99.90
39371;DHT22;25099;51.946;4.838;2023-12-04T01:13:16;3.00;99.90
39371;DHT22;25099;51.946;4.838;2023-12-04T01:15:41;3.00;99.90
39371;DHT22;25099;51.946;4.838;2023-12-04T01:18:08;3.00;99.90
39371;DHT22;25099;51.946;4.838;2023-12-04T01:20:34;3.00;99.90
39371;DHT22;25099;51.946;4.838;2023-12-04T01:22:59;3.00;99.90
39371;DHT22;25099;51.946;4.838;2023-12-04T01:25:25;3.00;99.90
39371;DHT22;25099;51.946;4.838;2023-12-04T01:27:51;3.10;99.90
39371;DHT22;25099;51.946;4.838;2023-12-04T01:30:16;3.10;99.90
39371;DHT22;25099;51.946;4.838;2023-12-04T01:32:42;3.00;99.90
39371;DHT22;25099;51.946;4.838;2023-12-04T01:35:07;3.10;99.90
39371;DHT22;25099;51.946;4.838;2023-12-04T01:37:33;3.10;99.90
39371;DHT22;25099;51.946;4.838;2023-12-04T01:39:59;3.10;99.90
39371;DHT22;25099;51.946;4.838;2023-12-04T01:42:24;3.00;99.90
39371;DHT22;25099;51.946;4.838;2023-12-04T01:44:50;3.00;99.90
39371;DHT22;25099;51.946;4.838;2023-12-04T01:47:16;3.10;99.90
39371;DHT22;25099;51.946;4.838;2023-12-04T01:49:42;3.00;99.90
39371;DHT22;25099;51.946;4.838;2023-12-04T01:52:09;3.10;99.90
39371;DHT22;25099;51.946;4.838;2023-12-04T01:54:35;3.10;99.90
39371;DHT22;25099;51.946;4.838;2023-12-04T01:57:02;3.10;99.90
39371;DHT22;25099;51.946;4.838;2023-12-04T01:59:28;3.00;99.90
39371;DHT22;25099;51.946;4.838;2023-12-04T02:01:54;3.00;99.90
39371;DHT22;25099;51.946;4.838;2023-12-04T02:04:20;3.00;99.90
39371;DHT22;25099;51.946;4.838;2023-12-04T02:06:46;3.00;99.90
39371;DHT22;25099;51.946;4.838;2023-12-04T02:09:12;3.00;99.90
39371;DHT22;25099;51.946;4.838;2023-12-04T02:11:38;3.10;99.90
39371;DHT22;25099;51.946;4.838;2023-12-04T02:14:06;3.00;99.90
39371;DHT22;25099;51.946;4.838;2023-12-04T02:16:34;3.10;99.90
39371;DHT22;25099;51.946;4.838;2023-12-04T02:19:02;3.00;99.90
39371;DHT22;25099;51.946;4.838;2023-12-04T02:21:28;3.00;99.90
39371;DHT22;25099;51.946;4.838;2023-12-04T02:23:54;3.00;99.90
39371;DHT22;25099;51.946;4.838;2023-12-04T02:26:23;3.00;99.90
39371;DHT22;25099;51.946;4.838;2023-12-04T02:28:55;3.00;99.90
39371;DHT22;25099;51.946;4.838;2023-12-04T02:31:23;3.00;99.90
39371;DHT22;25099;51.946;4.838;2023-12-04T02:33:54;3.00;99.90
39371;DHT22;25099;51.946;4.838;2023-12-04T02:36:23;3.00;99.90
39371;DHT22;25099;51.946;4.838;2023-12-04T02:38:50;3.10;99.90
39371;DHT22;25099;51.946;4.838;2023-12-04T02:41:15;3.00;99.90
39371;DHT22;25099;51.946;4.838;2023-12-04T02:43:43;3.00;99.90
39371;DHT22;25099;51.946;4.838;2023-12-04T02:46:08;3.00;99.90
39371;DHT22;25099;51.946;4.838;2023-12-04T02:48:34;3.00;99.90
39371;DHT22;25099;51.946;4.838;2023-12-04T02:51:00;3.00;99.90
39371;DHT22;25099;51.946;4.838;2023-12-04T02:53:25;3.00;99.90
39371;DHT22;25099;51.946;4.838;2023-12-04T02:55:51;3.00;99.90
39371;DHT22;25099;51.946;4.838;2023-12-04T02:58:16;3.00;99.90
39371;DHT22;25099;51.946;4.838;2023-12-04T03:00:42;3.00;99.90
39371;DHT22;25099;51.946;4.838;2023-12-04T03:03:07;3.00;99.90
39371;DHT22;25099;51.946;4.838;2023-12-04T03:05:33;3.00;99.90
39371;DHT22;25099;51.946;4.838;2023-12-04T03:07:58;3.00;99.90
39371;DHT22;25099;51.946;4.838;2023-12-04T03:10:24;3.00;99.90
39371;DHT22;25099;51.946;4.838;2023-12-04T03:12:49;3.10;99.90
39371;DHT22;25099;51.946;4.838;2023-12-04T03:15:15;3.00;99.90
39371;DHT22;25099;51.946;4.838;2023-12-04T03:17:40;3.00;99.90
39371;DHT22;25099;51.946;4.838;2023-12-04T03:20:06;3.00;99.90
39371;DHT22;25099;51.946;4.838;2023-12-04T03:22:34;3.10;99.90
39371;DHT22;25099;51.946;4.838;2023-12-04T03:25:00;3.10;99.90
39371;DHT22;25099;51.946;4.838;2023-12-04T03:27:26;3.10;99.90
39371;DHT22;25099;51.946;4.838;2023-12-04T03:29:51;3.10;99.90
39371;DHT22;25099;51.946;4.838;2023-12-04T03:32:17;3.00;99.90
39371;DHT22;25099;51.946;4.838;2023-12-04T03:34:42;3.00;99.90
39371;DHT22;25099;51.946;4.838;2023-12-04T03:37:08;3.00;99.90
39371;DHT22;25099;51.946;4.838;2023-12-04T03:39:33;3.10;99.90
39371;DHT22;25099;51.946;4.838;2023-12-04T03:41:59;3.00;99.90
39371;DHT22;25099;51.946;4.838;2023-12-04T03:44:25;3.10;99.90
39371;DHT22;25099;51.946;4.838;2023-12-04T03:46:50;3.10;99.90
39371;DHT22;25099;51.946;4.838;2023-12-04T03:49:17;3.00;99.90
39371;DHT22;25099;51.946;4.838;2023-12-04T03:51:42;3.10;99.90
39371;DHT22;25099;51.946;4.838;2023-12-04T03:54:08;3.10;99.90
39371;DHT22;25099;51.946;4.838;2023-12-04T03:56:33;3.10;99.90
39371;DHT22;25099;51.946;4.838;2023-12-04T03:58:59;3.10;99.90
39371;DHT22;25099;51.946;4.838;2023-12-04T04:01:25;3.10;99.90
39371;DHT22;25099;51.946;4.838;2023-12-04T04:03:50;3.00;99.90
39371;DHT22;25099;51.946;4.838;2023-12-04T04:06:16;3.10;99.90
39371;DHT22;25099;51.946;4.838;2023-12-04T04:08:41;3.10;99.90
39371;DHT22;25099;51.946;4.838;2023-12-04T04:11:07;3.10;99.90
39371;DHT22;25099;51.946;4.838;2023-12-04T04:13:32;3.10;99.90
39371;DHT22;25099;51.946;4.838;2023-12-04T04:15:58;3.10;99.90
39371;DHT22;25099;51.946;4.838;2023-12-04T04:18:23;3.00;99.90
39371;DHT22;25099;51.946;4.838;2023-12-04T04:20:49;3.10;99.90
39371;DHT22;25099;51.946;4.838;2023-12-04T04:23:14;3.10;99.90
39371;DHT22;25099;51.946;4.838;2023-12-04T04:25:40;3.00;99.90
39371;DHT22;25099;51.946;4.838;2023-12-04T04:28:05;3.10;99.90
39371;DHT22;25099;51.946;4.838;2023-12-04T04:30:31;3.10;99.90
39371;DHT22;25099;51.946;4.838;2023-12-04T04:32:56;3.10;99.90
39371;DHT22;25099;51.946;4.838;2023-12-04T04:35:22;3.00;99.90
39371;DHT22;25099;51.946;4.838;2023-12-04T04:37:47;3.10;99.90
39371;DHT22;25099;51.946;4.838;2023-12-04T04:40:13;3.10;99.90
39371;DHT22;25099;51.946;4.838;2023-12-04T04:42:39;3.10;99.90
39371;DHT22;25099;51.946;4.838;2023-12-04T04:45:04;3.00;99.90
39371;DHT22;25099;51.946;4.838;2023-12-04T04:47:30;3.10;99.90
39371;DHT22;25099;51.946;4.838;2023-12-04T04:49:56;3.10;99.90
39371;DHT22;25099;51.946;4.838;2023-12-04T04:52:21;3.10;99.90
39371;DHT22;25099;51.946;4.838;2023-12-04T04:54:47;3.10;99.90
39371;DHT22;25099;51.946;4.838;2023-12-04T04:57:12;3.10;99.90
39371;DHT22;25099;51.946;4.838;2023-12-04T04:59:38;3.10;99.90
39371;DHT22;25099;51.946;4.838;2023-12-04T05:02:03;3.10;99.90
39371;DHT22;25099;51.946;4.838;2023-12-04T05:04:29;3.10;99.90
39371;DHT22;25099;51.946;4.838;2023-12-04T05:06:54;3.10;99.90
39371;DHT22;25099;51.946;4.838;2023-12-04T05:09:20;3.10;99.90
39371;DHT22;25099;51.946;4.838;2023-12-04T05:11:46;3.10;99.90
39371;DHT22;25099;51.946;4.838;2023-12-04T05:14:12;3.10;99.90
39371;DHT22;25099;51.946;4.838;2023-12-04T05:16:37;3.10;99.90
39371;DHT22;25099;51.946;4.838;2023-12-04T05:19:03;3.10;99.90
39371;DHT22;25099;51.946;4.838;2023-12-04T05:21:28;3.10;99.90
39371;DHT22;25099;51.946;4.838;2023-12-04T05:23:54;3.20;99.90
39371;DHT22;25099;51.946;4.838;2023-12-04T05:26:19;3.10;99.90
39371;DHT22;25099;51.946;4.838;2023-12-04T05:28:45;3.10;99.90
39371;DHT22;25099;51.946;4.838;2023-12-04T05:31:11;3.10;99.90
39371;DHT22;25099;51.946;4.838;2023-12-04T05:33:37;3.20;99.90
39371;DHT22;25099;51.946;4.838;2023-12-04T05:36:03;3.20;99.90
39371;DHT22;25099;51.946;4.838;2023-12-04T05:38:28;3.10;99.90
39371;DHT22;25099;51.946;4.838;2023-12-04T05:40:54;3.20;99.90
39371;DHT22;25099;51.946;4.838;2023-12-04T05:43:20;3.10;99.90
39371;DHT22;25099;51.946;4.838;2023-12-04T05:45:45;3.10;99.90
39371;DHT22;25099;51.946;4.838;2023-12-04T05:48:11;3.10;99.90
39371;DHT22;25099;51.946;4.838;2023-12-04T05:50:36;4.00;99.90
39371;DHT22;25099;51.946;4.838;2023-12-04T05:53:02;3.10;99.90
39371;DHT22;25099;51.946;4.838;2023-12-04T05:55:27;3.20;99.90
39371;DHT22;25099;51.946;4.838;2023-12-04T05:57:53;3.20;99.90
39371;DHT22;25099;51.946;4.838;2023-12-04T06:00:19;3.20;99.90
39371;DHT22;25099;51.946;4.838;2023-12-04T06:02:44;3.20;99.90
39371;DHT22;25099;51.946;4.838;2023-12-04T06:05:10;3.20;99.90
39371;DHT22;25099;51.946;4.838;2023-12-04T06:07:37;3.20;99.90
39371;DHT22;25099;51.946;4.838;2023-12-04T06:10:03;3.20;99.90
39371;DHT22;25099;51.946;4.838;2023-12-04T06:12:33;3.20;99.90
39371;DHT22;25099;51.946;4.838;2023-12-04T06:14:59;3.30;99.90
39371;DHT22;25099;51.946;4.838;2023-12-04T06:17:25;3.30;99.90
39371;DHT22;25099;51.946;4.838;2023-12-04T06:19:51;3.30;99.90
39371;DHT22;25099;51.946;4.838;2023-12-04T06:22:17;3.20;99.90
39371;DHT22;25099;51.946;4.838;2023-12-04T06:24:45;3.20;99.90
39371;DHT22;25099;51.946;4.838;2023-12-04T06:27:15;3.20;99.90
39371;DHT22;25099;51.946;4.838;2023-12-04T06:29:43;3.20;99.90
39371;DHT22;25099;51.946;4.838;2023-12-04T06:32:09;3.20;99.90
39371;DHT22;25099;51.946;4.838;2023-12-04T06:34:35;3.20;99.90
39371;DHT22;25099;51.946;4.838;2023-12-04T06:37:02;3.20;99.90
39371;DHT22;25099;51.946;4.838;2023-12-04T06:39:31;3.20;99.90
39371;DHT22;25099;51.946;4.838;2023-12-04T06:41:57;3.20;99.90
39371;DHT22;25099;51.946;4.838;2023-12-04T06:44:23;3.20;99.90
39371;DHT22;25099;51.946;4.838;2023-12-04T06:46:49;3.70;99.90
39371;DHT22;25099;51.946;4.838;2023-12-04T06:49:17;3.20;99.90
39371;DHT22;25099;51.946;4.838;2023-12-04T06:51:42;3.20;99.90
39371;DHT22;25099;51.946;4.838;2023-12-04T06:54:08;3.20;99.90
39371;DHT22;25099;51.946;4.838;2023-12-04T06:56:34;3.20;99.90
39371;DHT22;25099;51.946;4.838;2023-12-04T06:58:59;3.20;99.90
39371;DHT22;25099;51.946;4.838;2023-12-04T07:01:25;3.30;99.90
39371;DHT22;25099;51.946;4.838;2023-12-04T07:03:51;3.30;99.90
39371;DHT22;25099;51.946;4.838;2023-12-04T07:06:16;3.30;99.90
39371;DHT22;25099;51.946;4.838;2023-12-04T07:08:42;3.30;99.90
39371;DHT22;25099;51.946;4.838;2023-12-04T07:11:08;3.30;99.90
39371;DHT22;25099;51.946;4.838;2023-12-04T07:13:34;3.30;99.90
39371;DHT22;25099;51.946;4.838;2023-12-04T07:15:59;3.30;99.90
39371;DHT22;25099;51.946;4.838;2023-12-04T07:18:25;3.30;99.90
39371;DHT22;25099;51.946;4.838;2023-12-04T07:20:51;3.30;99.90
39371;DHT22;25099;51.946;4.838;2023-12-04T07:23:16;3.30;99.90
39371;DHT22;25099;51.946;4.838;2023-12-04T07:25:42;3.30;99.90
39371;DHT22;25099;51.946;4.838;2023-12-04T07:28:07;3.40;99.90
39371;DHT22;25099;51.946;4.838;2023-12-04T07:30:33;3.30;99.90
39371;DHT22;25099;51.946;4.838;2023-12-04T07:32:59;3.30;99.90
39371;DHT22;25099;51.946;4.838;2023-12-04T07:35:25;3.30;99.90
39371;DHT22;25099;51.946;4.838;2023-12-04T07:37:51;3.30;99.90
39371;DHT22;25099;51.946;4.838;2023-12-04T07:40:17;3.30;99.90
39371;DHT22;25099;51.946;4.838;2023-12-04T07:42:43;3.30;99.90
39371;DHT22;25099;51.946;4.838;2023-12-04T07:45:09;3.30;99.90
39371;DHT22;25099;51.946;4.838;2023-12-04T07:47:36;3.30;99.90
39371;DHT22;25099;51.946;4.838;2023-12-04T07:50:01;3.30;99.90
39371;DHT22;25099;51.946;4.838;2023-12-04T07:52:27;3.30;99.90
39371;DHT22;25099;51.946;4.838;2023-12-04T07:54:52;3.50;99.90
39371;DHT22;25099;51.946;4.838;2023-12-04T07:57:18;3.30;99.90
39371;DHT22;25099;51.946;4.838;2023-12-04T07:59:44;3.30;99.90
39371;DHT22;25099;51.946;4.838;2023-12-04T08:02:10;3.30;99.90
39371;DHT22;25099;51.946;4.838;2023-12-04T08:04:35;3.30;99.90
39371;DHT22;25099;51.946;4.838;2023-12-04T08:07:01;3.30;99.90
39371;DHT22;25099;51.946;4.838;2023-12-04T08:09:28;3.30;99.90
39371;DHT22;25099;51.946;4.838;2023-12-04T08:11:53;3.30;99.90
39371;DHT22;25099;51.946;4.838;2023-12-04T08:14:19;3.40;99.90
39371;DHT22;25099;51.946;4.838;2023-12-04T08:16:45;3.40;99.90
39371;DHT22;25099;51.946;4.838;2023-12-04T08:19:10;3.40;99.90
39371;DHT22;25099;51.946;4.838;2023-12-04T08:21:36;3.30;99.90
39371;DHT22;25099;51.946;4.838;2023-12-04T08:24:02;3.20;99.90
39371;DHT22;25099;51.946;4.838;2023-12-04T08:26:27;3.40;99.90
39371;DHT22;25099;51.946;4.838;2023-12-04T08:28:53;3.40;99.90
39371;DHT22;25099;51.946;4.838;2023-12-04T08:31:18;3.40;99.90
39371;DHT22;25099;51.946;4.838;2023-12-04T08:33:44;3.40;99.90
39371;DHT22;25099;51.946;4.838;2023-12-04T08:36:11;3.40;99.90
39371;DHT22;25099;51.946;4.838;2023-12-04T08:38:36;3.40;99.90
39371;DHT22;25099;51.946;4.838;2023-12-04T08:41:03;3.40;99.90
39371;DHT22;25099;51.946;4.838;2023-12-04T08:43:29;3.40;99.90
39371;DHT22;25099;51.946;4.838;2023-12-04T08:45:55;4.00;99.90
39371;DHT22;25099;51.946;4.838;2023-12-04T08:48:20;3.40;99.90
39371;DHT22;25099;51.946;4.838;2023-12-04T08:50:47;3.40;99.90
39371;DHT22;25099;51.946;4.838;2023-12-04T08:53:13;4.40;99.90
39371;DHT22;25099;51.946;4.838;2023-12-04T08:55:38;3.40;99.90
39371;DHT22;25099;51.946;4.838;2023-12-04T08:58:04;4.50;99.90
39371;DHT22;25099;51.946;4.838;2023-12-04T09:00:30;3.40;99.90
39371;DHT22;25099;51.946;4.838;2023-12-04T09:02:55;3.40;99.90
39371;DHT22;25099;51.946;4.838;2023-12-04T09:05:21;3.40;99.90
39371;DHT22;25099;51.946;4.838;2023-12-04T09:07:49;3.40;99.90
39371;DHT22;25099;51.946;4.838;2023-12-04T09:10:14;3.40;99.90
39371;DHT22;25099;51.946;4.838;2023-12-04T09:12:40;4.20;99.90
39371;DHT22;25099;51.946;4.838;2023-12-04T09:15:06;3.40;99.90
39371;DHT22;25099;51.946;4.838;2023-12-04T09:17:32;3.50;99.90
39371;DHT22;25099;51.946;4.838;2023-12-04T09:19:58;3.40;99.90
39371;DHT22;25099;51.946;4.838;2023-12-04T09:22:24;3.40;99.90
39371;DHT22;25099;51.946;4.838;2023-12-04T09:24:49;3.40;99.90
39371;DHT22;25099;51.946;4.838;2023-12-04T09:27:15;3.50;99.90
39371;DHT22;25099;51.946;4.838;2023-12-04T09:29:42;3.50;99.90
39371;DHT22;25099;51.946;4.838;2023-12-04T09:32:08;3.50;99.90
39371;DHT22;25099;51.946;4.838;2023-12-04T09:34:35;3.40;99.90
39371;DHT22;25099;51.946;4.838;2023-12-04T09:37:00;3.50;99.90
39371;DHT22;25099;51.946;4.838;2023-12-04T09:39:27;3.50;99.90
39371;DHT22;25099;51.946;4.838;2023-12-04T09:41:53;3.50;99.90
39371;DHT22;25099;51.946;4.838;2023-12-04T09:44:21;3.50;99.90
39371;DHT22;25099;51.946;4.838;2023-12-04T09:46:47;3.50;99.90
39371;DHT22;25099;51.946;4.838;2023-12-04T09:49:13;3.60;99.90
39371;DHT22;25099;51.946;4.838;2023-12-04T09:51:39;3.50;99.90
39371;DHT22;25099;51.946;4.838;2023-12-04T09:54:05;3.50;99.90
39371;DHT22;25099;51.946;4.838;2023-12-04T09:56:33;3.60;99.90
39371;DHT22;25099;51.946;4.838;2023-12-04T09:59:00;3.50;99.90
39371;DHT22;25099;51.946;4.838;2023-12-04T10:01:29;3.50;99.90
39371;DHT22;25099;51.946;4.838;2023-12-04T10:03:57;3.60;99.90
39371;DHT22;25099;51.946;4.838;2023-12-04T10:06:26;3.60;99.90
39371;DHT22;25099;51.946;4.838;2023-12-04T10:08:53;3.60;99.90
39371;DHT22;25099;51.946;4.838;2023-12-04T10:11:20;3.60;99.90
39371;DHT22;25099;51.946;4.838;2023-12-04T10:13:46;3.60;99.90
39371;DHT22;25099;51.946;4.838;2023-12-04T10:16:12;3.60;99.90
39371;DHT22;25099;51.946;4.838;2023-12-04T10:18:37;3.60;99.90
39371;DHT22;25099;51.946;4.838;2023-12-04T10:21:03;3.90;99.90
39371;DHT22;25099;51.946;4.838;2023-12-04T10:23:41;3.70;99.90
39371;DHT22;25099;51.946;4.838;2023-12-04T10:26:08;3.70;99.90
39371;DHT22;25099;51.946;4.838;2023-12-04T10:28:34;3.70;99.90
39371;DHT22;25099;51.946;4.838;2023-12-04T10:31:00;3.70;99.90
39371;DHT22;25099;51.946;4.838;2023-12-04T10:33:26;3.70;99.90
39371;DHT22;25099;51.946;4.838;2023-12-04T10:35:53;3.70;99.90
39371;DHT22;25099;51.946;4.838;2023-12-04T10:38:20;3.80;99.90
39371;DHT22;25099;51.946;4.838;2023-12-04T10:40:46;3.80;99.90
39371;DHT22;25099;51.946;4.838;2023-12-04T10:43:18;4.60;99.90
39371;DHT22;25099;51.946;4.838;2023-12-04T10:45:46;3.80;99.90
39371;DHT22;25099;51.946;4.838;2023-12-04T10:48:13;4.40;99.90
39371;DHT22;25099;51.946;4.838;2023-12-04T10:50:41;4.10;99.90
39371;DHT22;25099;51.946;4.838;2023-12-04T10:53:08;3.80;99.90
39371;DHT22;25099;51.946;4.838;2023-12-04T10:55:35;3.90;99.90
39371;DHT22;25099;51.946;4.838;2023-12-04T10:58:02;3.90;99.90
39371;DHT22;25099;51.946;4.838;2023-12-04T11:00:33;4.00;99.90
39371;DHT22;25099;51.946;4.838;2023-12-04T11:03:07;3.90;99.90
39371;DHT22;25099;51.946;4.838;2023-12-04T11:05:39;3.90;99.90
39371;DHT22;25099;51.946;4.838;2023-12-04T11:08:21;3.90;99.90
39371;DHT22;25099;51.946;4.838;2023-12-04T11:10:49;3.90;99.90
39371;DHT22;25099;51.946;4.838;2023-12-04T11:13:21;3.90;99.90
39371;DHT22;25099;51.946;4.838;2023-12-04T11:15:50;3.90;99.90
39371;DHT22;25099;51.946;4.838;2023-12-04T11:18:21;3.90;99.90
39371;DHT22;25099;51.946;4.838;2023-12-04T11:20:52;3.90;99.90
39371;DHT22;25099;51.946;4.838;2023-12-04T11:23:19;4.00;99.90
39371;DHT22;25099;51.946;4.838;2023-12-04T11:25:45;4.00;99.90
39371;DHT22;25099;51.946;4.838;2023-12-04T11:28:12;4.10;99.90
39371;DHT22;25099;51.946;4.838;2023-12-04T11:30:39;4.10;99.90
39371;DHT22;25099;51.946;4.838;2023-12-04T11:33:05;4.10;99.90
39371;DHT22;25099;51.946;4.838;2023-12-04T11:35:30;4.10;99.90
39371;DHT22;25099;51.946;4.838;2023-12-04T11:37:58;4.10;99.90
39371;DHT22;25099;51.946;4.838;2023-12-04T11:40:24;4.20;99.90
39371;DHT22;25099;51.946;4.838;2023-12-04T11:42:52;4.10;99.90
39371;DHT22;25099;51.946;4.838;2023-12-04T11:45:20;4.10;99.90
39371;DHT22;25099;51.946;4.838;2023-12-04T11:47:54;4.10;99.90
39371;DHT22;25099;51.946;4.838;2023-12-04T11:50:21;4.10;99.90
39371;DHT22;25099;51.946;4.838;2023-12-04T11:52:47;4.10;99.90
39371;DHT22;25099;51.946;4.838;2023-12-04T11:55:22;4.20;99.90
39371;DHT22;25099;51.946;4.838;2023-12-04T11:57:50;4.20;99.90
39371;DHT22;25099;51.946;4.838;2023-12-04T12:02:48;4.10;99.90
39371;DHT22;25099;51.946;4.838;2023-12-04T12:05:14;4.10;99.90
39371;DHT22;25099;51.946;4.838;2023-12-04T12:07:40;4.10;99.90
39371;DHT22;25099;51.946;4.838;2023-12-04T12:10:06;4.20;99.90
39371;DHT22;25099;51.946;4.838;2023-12-04T12:12:32;4.20;99.90
39371;DHT22;25099;51.946;4.838;2023-12-04T12:14:59;4.20;99.90
39371;DHT22;25099;51.946;4.838;2023-12-04T12:17:24;4.20;99.90
39371;DHT22;25099;51.946;4.838;2023-12-04T12:19:50;4.10;99.90
39371;DHT22;25099;51.946;4.838;2023-12-04T12:22:17;4.10;99.90
39371;DHT22;25099;51.946;4.838;2023-12-04T12:24:43;4.10;99.90
39371;DHT22;25099;51.946;4.838;2023-12-04T12:27:08;4.10;99.90
39371;DHT22;25099;51.946;4.838;2023-12-04T12:29:34;4.10;99.90
39371;DHT22;25099;51.946;4.838;2023-12-04T12:31:59;4.10;99.90
39371;DHT22;25099;51.946;4.838;2023-12-04T12:34:25;4.10;99.90
39371;DHT22;25099;51.946;4.838;2023-12-04T12:42:05;4.10;99.90
39371;DHT22;25099;51.946;4.838;2023-12-04T12:44:38;4.10;99.90
39371;DHT22;25099;51.946;4.838;2023-12-04T12:47:05;4.10;99.90
39371;DHT22;25099;51.946;4.838;2023-12-04T12:49:32;4.10;99.90
39371;DHT22;25099;51.946;4.838;2023-12-04T12:52:28;4.10;99.90
39371;DHT22;25099;51.946;4.838;2023-12-04T12:54:53;4.40;99.90
39371;DHT22;25099;51.946;4.838;2023-12-04T12:57:29;4.10;99.90
39371;DHT22;25099;51.946;4.838;2023-12-04T12:59:59;4.10;99.90
39371;DHT22;25099;51.946;4.838;2023-12-04T13:02:26;4.10;99.90
39371;DHT22;25099;51.946;4.838;2023-12-04T13:05:13;4.10;99.90
39371;DHT22;25099;51.946;4.838;2023-12-04T13:07:39;4.10;99.90
39371;DHT22;25099;51.946;4.838;2023-12-04T13:10:07;4.10;99.90
39371;DHT22;25099;51.946;4.838;2023-12-04T13:12:40;4.10;99.90
39371;DHT22;25099;51.946;4.838;2023-12-04T13:15:09;4.10;99.90
39371;DHT22;25099;51.946;4.838;2023-12-04T13:17:36;4.10;99.90
39371;DHT22;25099;51.946;4.838;2023-12-04T13:20:02;4.10;99.90
39371;DHT22;25099;51.946;4.838;2023-12-04T13:22:31;4.10;99.90
39371;DHT22;25099;51.946;4.838;2023-12-04T13:24:59;4.10;99.90
39371;DHT22;25099;51.946;4.838;2023-12-04T13:27:25;4.10;99.90
39371;DHT22;25099;51.946;4.838;2023-12-04T13:29:52;4.10;99.90
39371;DHT22;25099;51.946;4.838;2023-12-04T13:32:17;4.10;99.90
39371;DHT22;25099;51.946;4.838;2023-12-04T13:34:43;4.10;99.90
39371;DHT22;25099;51.946;4.838;2023-12-04T13:37:09;4.10;99.90
39371;DHT22;25099;51.946;4.838;2023-12-04T13:39:35;4.10;99.90
39371;DHT22;25099;51.946;4.838;2023-12-04T13:42:26;4.10;99.90
39371;DHT22;25099;51.946;4.838;2023-12-04T13:45:11;4.10;99.90
39371;DHT22;25099;51.946;4.838;2023-12-04T13:47:40;4.10;99.90
39371;DHT22;25099;51.946;4.838;2023-12-04T13:50:07;4.20;99.90
39371;DHT22;25099;51.946;4.838;2023-12-04T13:52:37;4.20;99.90
39371;DHT22;25099;51.946;4.838;2023-12-04T13:55:05;4.20;99.90
39371;DHT22;25099;51.946;4.838;2023-12-04T13:57:50;4.20;99.90
39371;DHT22;25099;51.946;4.838;2023-12-04T14:00:29;4.20;99.90
39371;DHT22;25099;51.946;4.838;2023-12-04T14:02:55;4.20;99.90
39371;DHT22;25099;51.946;4.838;2023-12-04T14:05:30;4.20;99.90
39371;DHT22;25099;51.946;4.838;2023-12-04T14:07:57;4.20;99.90
39371;DHT22;25099;51.946;4.838;2023-12-04T14:10:27;4.20;99.90
39371;DHT22;25099;51.946;4.838;2023-12-04T14:12:54;4.20;99.90
39371;DHT22;25099;51.946;4.838;2023-12-04T14:15:27;4.20;99.90
39371;DHT22;25099;51.946;4.838;2023-12-04T14:18:03;4.20;99.90
39371;DHT22;25099;51.946;4.838;2023-12-04T14:20:31;4.70;99.90
39371;DHT22;25099;51.946;4.838;2023-12-04T14:23:02;4.20;99.90
39371;DHT22;25099;51.946;4.838;2023-12-04T14:25:29;4.10;99.90
39371;DHT22;25099;51.946;4.838;2023-12-04T14:28:11;4.10;99.90
39371;DHT22;25099;51.946;4.838;2023-12-04T14:30:41;4.10;99.90
39371;DHT22;25099;51.946;4.838;2023-12-04T14:33:21;4.70;99.90
39371;DHT22;25099;51.946;4.838;2023-12-04T14:35:46;4.70;99.90
39371;DHT22;25099;51.946;4.838;2023-12-04T14:38:13;4.10;99.90
39371;DHT22;25099;51.946;4.838;2023-12-04T14:40:38;4.00;99.90
39371;DHT22;25099;51.946;4.838;2023-12-04T14:43:14;4.10;99.90
39371;DHT22;25099;51.946;4.838;2023-12-04T14:45:40;4.00;99.90
39371;DHT22;25099;51.946;4.838;2023-12-04T14:48:06;4.90;99.90
39371;DHT22;25099;51.946;4.838;2023-12-04T14:50:35;4.00;99.90
39371;DHT22;25099;51.946;4.838;2023-12-04T14:53:16;4.00;99.90
39371;DHT22;25099;51.946;4.838;2023-12-04T14:55:54;4.50;99.90
39371;DHT22;25099;51.946;4.838;2023-12-04T14:58:39;3.90;99.90
39371;DHT22;25099;51.946;4.838;2023-12-04T15:01:11;4.80;99.90
39371;DHT22;25099;51.946;4.838;2023-12-04T15:03:56;3.90;99.90
39371;DHT22;25099;51.946;4.838;2023-12-04T15:06:44;3.90;99.90
39371;DHT22;25099;51.946;4.838;2023-12-04T15:09:41;3.90;99.90
39371;DHT22;25099;51.946;4.838;2023-12-04T15:12:26;3.90;99.90
39371;DHT22;25099;51.946;4.838;2023-12-04T15:15:07;3.90;99.90
39371;DHT22;25099;51.946;4.838;2023-12-04T15:17:53;3.90;99.90
39371;DHT22;25099;51.946;4.838;2023-12-04T15:20:39;4.50;99.90
39371;DHT22;25099;51.946;4.838;2023-12-04T15:23:05;3.90;99.90
39371;DHT22;25099;51.946;4.838;2023-12-04T15:25:34;3.80;99.90
39371;DHT22;25099;51.946;4.838;2023-12-04T15:28:04;3.80;99.90
39371;DHT22;25099;51.946;4.838;2023-12-04T15:30:34;3.80;99.90
39371;DHT22;25099;51.946;4.838;2023-12-04T15:33:00;3.90;99.90
39371;DHT22;25099;51.946;4.838;2023-12-04T15:35:43;3.80;99.90
39371;DHT22;25099;51.946;4.838;2023-12-04T15:38:10;3.80;99.90
39371;DHT22;25099;51.946;4.838;2023-12-04T15:40:36;3.80;99.90
39371;DHT22;25099;51.946;4.838;2023-12-04T15:43:02;3.80;99.90
39371;DHT22;25099;51.946;4.838;2023-12-04T15:45:29;3.80;99.90
39371;DHT22;25099;51.946;4.838;2023-12-04T15:47:55;3.80;99.90
39371;DHT22;25099;51.946;4.838;2023-12-04T15:50:21;3.80;99.90
39371;DHT22;25099;51.946;4.838;2023-12-04T15:52:55;3.70;99.90